Time,TemperatureF,DewpointF,PressureIn,WindDirection,WindDirectionDegrees,WindSpeedMPH,WindSpeedGustMPH,Humidity,HourlyPrecipIn,Conditions,Clouds,dailyrainin,SoftwareType,DateUTC
2013-07-11 00:01:00,87.0,63.0,29.85,ENE,70,9.0,10.0,45,0.00,,,0.00,,2013-07-11 07:01:00,
2013-07-11 00:12:00,87.0,63.0,29.85,East,84,12.0,15.0,45,0.00,,,0.00,,2013-07-11 07:12:00,
2013-07-11 00:32:00,86.0,64.0,29.85,ENE,62,9.0,11.0,48,0.00,,,0.00,,2013-07-11 07:32:00,
2013-07-11 00:45:00,86.0,65.0,29.85,ENE,63,9.0,15.0,49,0.00,,,0.00,,2013-07-11 07:45:00,
2013-07-11 00:53:00,86.0,65.0,29.85,ENE,70,12.0,12.0,50,0.00,,,0.00,,2013-07-11 07:53:00,
2013-07-11 01:02:00,86.0,65.0,29.86,ENE,73,11.0,11.0,50,0.00,,,0.00,,2013-07-11 08:02:00,
2013-07-11 01:11:00,86.0,65.0,29.85,NNE,32,13.0,13.0,49,0.00,,,0.00,,2013-07-11 08:11:00,
2013-07-11 01:22:00,85.0,64.0,29.85,East,83,11.0,11.0,49,0.00,,,0.00,,2013-07-11 08:22:00,
2013-07-11 01:33:00,85.0,63.0,29.85,NE,45,10.0,10.0,48,0.00,,,0.00,,2013-07-11 08:33:00,
2013-07-11 01:42:00,86.0,63.0,29.85,ENE,63,9.0,11.0,47,0.00,,,0.00,,2013-07-11 08:42:00,
2013-07-11 01:53:00,86.0,63.0,29.85,ENE,63,9.0,11.0,47,0.00,,,0.00,,2013-07-11 08:53:00,
2013-07-11 02:02:00,87.0,63.0,29.85,East,80,10.0,10.0,45,0.00,,,0.00,,2013-07-11 09:02:00,
2013-07-11 02:12:00,86.0,62.0,29.84,NE,39,10.0,10.0,45,0.00,,,0.00,,2013-07-11 09:12:00,
2013-07-11 02:33:00,87.0,62.0,29.83,ENE,65,7.0,7.0,44,0.00,,,0.00,,2013-07-11 09:33:00,
2013-07-11 02:43:00,87.0,62.0,29.83,NE,44,6.0,6.0,44,0.00,,,0.00,,2013-07-11 09:43:00,
2013-07-11 02:53:00,87.0,62.0,29.83,East,94,8.0,8.0,44,0.00,,,0.00,,2013-07-11 09:53:00,
2013-07-11 03:01:00,87.0,62.0,29.83,NE,53,10.0,10.0,43,0.00,,,0.00,,2013-07-11 10:01:00,
2013-07-11 03:11:00,87.0,62.0,29.83,East,80,10.0,10.0,43,0.00,,,0.00,,2013-07-11 10:11:00,
2013-07-11 03:21:00,87.0,62.0,29.83,ENE,59,12.0,16.0,43,0.00,,,0.00,,2013-07-11 10:21:00,
2013-07-11 03:33:00,87.0,62.0,29.83,ENE,59,11.0,11.0,44,0.00,,,0.00,,2013-07-11 10:33:00,
2013-07-11 03:42:00,87.0,62.0,29.84,NE,49,9.0,12.0,44,0.00,,,0.00,,2013-07-11 10:42:00,
2013-07-11 03:52:00,87.0,62.0,29.84,NE,53,8.0,11.0,44,0.00,,,0.00,,2013-07-11 10:52:00,
2013-07-11 04:01:00,82.0,68.0,29.85,NE,53,12.0,14.0,63,0.00,,,0.00,,2013-07-11 11:01:00,
2013-07-11 04:22:00,78.0,68.0,29.86,NNE,32,0.0,0.0,72,0.15,,,0.00,,2013-07-11 11:22:00,
2013-07-11 04:32:00,79.0,70.0,29.87,East,82,9.0,14.0,75,0.15,,,0.00,,2013-07-11 11:32:00,
2013-07-11 04:42:00,76.0,70.0,29.86,ESE,111,3.0,3.0,83,0.15,,,0.00,,2013-07-11 11:42:00,
2013-07-11 04:53:00,76.0,70.0,29.86,NE,34,2.0,0.0,83,0.15,,,0.00,,2013-07-11 11:53:00,
2013-07-11 05:01:00,76.0,71.0,29.86,NW,309,0.0,0.0,84,0.15,,,0.00,,2013-07-11 12:01:00,
2013-07-11 05:11:00,76.0,72.0,29.86,NNW,336,2.0,2.0,86,0.20,,,0.00,,2013-07-11 12:11:00,
2013-07-11 05:22:00,77.0,72.0,29.86,North,349,1.0,0.0,85,0.20,,,0.00,,2013-07-11 12:22:00,
2013-07-11 05:33:00,78.0,74.0,29.88,North,353,5.0,5.0,89,0.20,,,0.00,,2013-07-11 12:33:00,
2013-07-11 05:42:00,80.0,72.0,29.88,NNW,345,11.0,11.0,78,0.20,,,0.00,,2013-07-11 12:42:00,
2013-07-11 05:53:00,80.0,71.0,29.88,NNW,343,10.0,10.0,73,0.20,,,0.00,,2013-07-11 12:53:00,
2013-07-11 06:01:00,80.0,69.0,29.88,NW,316,11.0,13.0,70,0.20,,,0.00,,2013-07-11 13:01:00,
2013-07-11 06:11:00,80.0,70.0,29.88,NNE,17,10.0,13.0,71,0.20,,,0.00,,2013-07-11 13:11:00,
2013-07-11 06:33:00,78.0,71.0,29.88,NW,323,10.0,12.0,78,0.00,,,0.00,,2013-07-11 13:33:00,
2013-07-11 06:43:00,78.0,71.0,29.89,North,352,6.0,6.0,79,0.00,,,0.00,,2013-07-11 13:43:00,
2013-07-11 06:52:00,78.0,71.0,29.89,North,359,7.0,7.0,78,0.00,,,0.00,,2013-07-11 13:52:00,
2013-07-11 07:01:00,79.0,70.0,29.89,NNE,14,8.0,8.0,75,0.00,,,0.00,,2013-07-11 14:01:00,
2013-07-11 07:11:00,79.0,70.0,29.89,North,3,7.0,8.0,74,0.00,,,0.00,,2013-07-11 14:11:00,
2013-07-11 07:21:00,80.0,70.0,29.89,NNW,339,8.0,8.0,72,0.00,,,0.00,,2013-07-11 14:21:00,
2013-07-11 07:43:00,80.0,70.0,29.89,NNW,343,7.0,7.0,72,0.00,,,0.00,,2013-07-11 14:43:00,
2013-07-11 07:53:00,80.0,70.0,29.89,NNE,21,6.0,6.0,72,0.00,,,0.00,,2013-07-11 14:53:00,
2013-07-11 08:01:00,80.0,71.0,29.89,NNE,17,5.0,5.0,73,0.00,,,0.00,,2013-07-11 15:01:00,
2013-07-11 08:11:00,81.0,71.0,29.90,North,1,3.0,4.0,71,0.00,,,0.00,,2013-07-11 15:11:00,
2013-07-11 08:21:00,81.0,70.0,29.90,NNW,343,3.0,5.0,69,0.00,,,0.00,,2013-07-11 15:21:00,
2013-07-11 08:33:00,82.0,69.0,29.90,NW,319,6.0,7.0,66,0.00,,,0.00,,2013-07-11 15:33:00,
2013-07-11 08:44:00,83.0,70.0,29.90,NNE,13,5.0,5.0,65,0.00,,,0.00,,2013-07-11 15:44:00,
2013-07-11 08:53:00,83.0,70.0,29.90,NW,325,6.0,10.0,65,0.00,,,0.00,,2013-07-11 15:53:00,
2013-07-11 09:01:00,83.0,70.0,29.90,North,11,5.0,5.0,64,0.00,,,0.00,,2013-07-11 16:01:00,
2013-07-11 09:22:00,82.0,70.0,29.90,NW,316,7.0,7.0,68,0.00,,,0.00,,2013-07-11 16:22:00,
2013-07-11 09:32:00,82.0,70.0,29.90,NNW,336,9.0,9.0,67,0.00,,,0.00,,2013-07-11 16:32:00,
2013-07-11 09:43:00,83.0,71.0,29.90,NNW,328,8.0,8.0,67,0.00,,,0.00,,2013-07-11 16:43:00,
2013-07-11 09:53:00,83.0,71.0,29.90,NW,325,7.0,10.0,68,0.00,,,0.00,,2013-07-11 16:53:00,
2013-07-11 10:12:00,83.0,73.0,29.90,NNW,328,9.0,9.0,72,0.00,,,0.00,,2013-07-11 17:12:00,
2013-07-11 10:33:00,84.0,73.0,29.90,NNW,339,8.0,9.0,69,0.00,,,0.00,,2013-07-11 17:33:00,
2013-07-11 10:42:00,85.0,73.0,29.90,NNW,339,7.0,7.0,68,0.00,,,0.00,,2013-07-11 17:42:00,
2013-07-11 10:52:00,86.0,73.0,29.90,NNW,335,10.0,10.0,65,0.00,,,0.00,,2013-07-11 17:52:00,
2013-07-11 11:02:00,88.0,68.0,29.90,NNW,339,6.0,7.0,51,0.00,,,0.00,,2013-07-11 18:02:00,
2013-07-11 11:11:00,89.0,68.0,29.90,NNW,333,6.0,6.0,50,0.00,,,0.00,,2013-07-11 18:11:00,
2013-07-11 11:32:00,91.0,70.0,29.90,NW,314,8.0,11.0,50,0.00,,,0.00,,2013-07-11 18:32:00,
2013-07-11 11:43:00,92.0,71.0,29.89,NNW,329,10.0,11.0,50,0.00,,,0.00,,2013-07-11 18:43:00,
2013-07-11 11:52:00,92.0,70.0,29.89,North,359,4.0,5.0,49,0.00,,,0.00,,2013-07-11 18:52:00,
2013-07-11 12:01:00,94.0,69.0,29.89,NNE,25,5.0,5.0,44,0.00,,,0.00,,2013-07-11 19:01:00,
2013-07-11 12:11:00,94.0,69.0,29.89,North,359,8.0,8.0,45,0.00,,,0.00,,2013-07-11 19:11:00,
2013-07-11 12:43:00,96.0,65.0,29.88,NE,35,1.0,1.0,37,0.00,,,0.00,,2013-07-11 19:43:00,
2013-07-11 13:01:00,96.0,62.0,29.87,ENE,73,10.0,19.0,33,0.00,,,0.00,,2013-07-11 20:01:00,
2013-07-11 13:11:00,96.0,62.0,29.87,ENE,73,10.0,19.0,33,0.00,,,0.00,,2013-07-11 20:11:00,
2013-07-11 13:22:00,97.0,63.0,29.87,ENE,58,7.0,9.0,33,0.00,,,0.00,,2013-07-11 20:22:00,
2013-07-11 13:33:00,97.0,62.0,29.86,South,180,3.0,3.0,32,0.00,,,0.00,,2013-07-11 20:33:00,
2013-07-11 13:52:00,97.0,61.0,29.85,NNE,25,10.0,10.0,31,0.00,,,0.00,,2013-07-11 20:52:00,
2013-07-11 14:11:00,97.0,61.0,29.85,NE,48,11.0,11.0,31,0.00,,,0.00,,2013-07-11 21:11:00,
2013-07-11 14:21:00,97.0,61.0,29.84,ESE,105,1.0,3.0,31,0.00,,,0.00,,2013-07-11 21:21:00,
2013-07-11 14:32:00,97.0,61.0,29.84,SE,128,9.0,9.0,31,0.00,,,0.00,,2013-07-11 21:32:00,
2013-07-11 15:01:00,98.0,59.0,29.83,SE,136,4.0,8.0,28,0.00,,,0.00,,2013-07-11 22:01:00,
2013-07-11 15:11:00,100.0,59.0,29.83,ENE,69,9.0,9.0,26,0.00,,,0.00,,2013-07-11 22:11:00,
2013-07-11 15:22:00,99.0,59.0,29.83,ENE,77,3.0,8.0,27,0.00,,,0.00,,2013-07-11 22:22:00,
2013-07-11 15:31:00,98.0,59.0,29.82,ESE,111,6.0,6.0,28,0.00,,,0.00,,2013-07-11 22:31:00,
2013-07-11 15:52:00,98.0,58.0,29.81,ENE,72,9.0,9.0,27,0.00,,,0.00,,2013-07-11 22:52:00,
2013-07-11 16:01:00,97.0,59.0,29.81,SW,232,6.0,6.0,29,0.00,,,0.00,,2013-07-11 23:01:00,
2013-07-11 16:32:00,96.0,59.0,29.80,ENE,77,9.0,9.0,29,0.00,,,0.00,,2013-07-11 23:32:00,
2013-07-11 16:43:00,98.0,58.0,29.80,ESE,103,4.0,6.0,27,0.00,,,0.00,,2013-07-11 23:43:00,
2013-07-11 16:53:00,97.0,58.0,29.80,ENE,63,7.0,10.0,28,0.00,,,0.00,,2013-07-11 23:53:00,
2013-07-11 17:01:00,97.0,57.0,29.80,SSE,153,7.0,7.0,27,0.00,,,0.00,,2013-07-12 00:01:00,
2013-07-11 17:11:00,97.0,57.0,29.79,SSE,158,7.0,7.0,27,0.00,,,0.00,,2013-07-12 00:11:00,
2013-07-11 17:33:00,98.0,58.0,29.80,NE,38,7.0,7.0,27,0.00,,,0.00,,2013-07-12 00:33:00,
2013-07-11 17:43:00,97.0,57.0,29.79,SSE,160,7.0,7.0,27,0.00,,,0.00,,2013-07-12 00:43:00,
2013-07-11 18:12:00,97.0,57.0,29.79,East,82,6.0,6.0,27,0.00,,,0.00,,2013-07-12 01:12:00,
2013-07-11 18:32:00,97.0,57.0,29.79,East,98,8.0,8.0,27,0.00,,,0.00,,2013-07-12 01:32:00,
2013-07-11 18:43:00,97.0,57.0,29.79,East,98,8.0,8.0,27,0.00,,,0.00,,2013-07-12 01:43:00,
2013-07-11 18:53:00,96.0,58.0,29.80,East,94,8.0,8.0,28,0.00,,,0.00,,2013-07-12 01:53:00,
2013-07-11 19:12:00,95.0,57.0,29.80,East,84,6.0,10.0,28,0.00,,,0.00,,2013-07-12 02:12:00,
2013-07-11 19:22:00,95.0,58.0,29.80,NW,323,7.0,7.0,29,0.00,,,0.00,,2013-07-12 02:22:00,
2013-07-11 19:32:00,93.0,67.0,29.80,WSW,248,6.0,6.0,43,0.00,,,0.00,,2013-07-12 02:32:00,
2013-07-11 19:42:00,92.0,68.0,29.81,SSW,204,8.0,8.0,45,0.00,,,0.00,,2013-07-12 02:42:00,
2013-07-11 19:52:00,91.0,67.0,29.81,SW,221,3.0,6.0,46,0.00,,,0.00,,2013-07-12 02:52:00,
2013-07-11 20:01:00,91.0,68.0,29.81,SSW,212,2.0,4.0,47,0.00,,,0.00,,2013-07-12 03:01:00,
2013-07-11 20:11:00,91.0,68.0,29.82,SE,134,3.0,3.0,47,0.00,,,0.00,,2013-07-12 03:11:00,
2013-07-11 20:21:00,90.0,68.0,29.82,SSW,205,4.0,4.0,48,0.00,,,0.00,,2013-07-12 03:21:00,
2013-07-11 20:32:00,90.0,68.0,29.82,West,269,4.0,4.0,49,0.00,,,0.00,,2013-07-12 03:32:00,
2013-07-11 20:42:00,89.0,67.0,29.82,SW,225,5.0,5.0,49,0.00,,,0.00,,2013-07-12 03:42:00,
2013-07-11 21:01:00,89.0,68.0,29.82,SW,236,2.0,2.0,50,0.00,,,0.00,,2013-07-12 04:01:00,
2013-07-11 21:11:00,88.0,67.0,29.83,SSW,200,3.0,3.0,50,0.00,,,0.00,,2013-07-12 04:11:00,
2013-07-11 21:21:00,88.0,68.0,29.83,SSW,198,3.0,3.0,51,0.00,,,0.00,,2013-07-12 04:21:00,
2013-07-11 21:32:00,88.0,68.0,29.83,SSE,148,0.0,0.0,52,0.00,,,0.00,,2013-07-12 04:32:00,
2013-07-11 21:43:00,88.0,69.0,29.83,SW,215,0.0,0.0,53,0.00,,,0.00,,2013-07-12 04:43:00,
2013-07-11 21:53:00,87.0,69.0,29.83,SW,217,0.0,0.0,55,0.00,,,0.00,,2013-07-12 04:53:00,
2013-07-11 22:01:00,87.0,69.0,29.83,SW,217,0.0,0.0,55,0.00,,,0.00,,2013-07-12 05:01:00,
2013-07-11 22:11:00,87.0,69.0,29.83,SW,217,0.0,0.0,56,0.00,,,0.00,,2013-07-12 05:11:00,
2013-07-11 22:22:00,87.0,69.0,29.83,SW,217,0.0,0.0,56,0.00,,,0.00,,2013-07-12 05:22:00,
2013-07-11 22:32:00,86.0,69.0,29.83,SW,217,0.0,0.0,58,0.00,,,0.00,,2013-07-12 05:32:00,
2013-07-11 22:42:00,86.0,70.0,29.83,ESE,107,0.0,0.0,59,0.00,,,0.00,,2013-07-12 05:42:00,
2013-07-11 22:53:00,86.0,70.0,29.83,ESE,107,0.0,0.0,59,0.00,,,0.00,,2013-07-12 05:53:00,
2013-07-11 23:01:00,86.0,70.0,29.83,East,82,2.0,3.0,59,0.00,,,0.00,,2013-07-12 06:01:00,
2013-07-11 23:11:00,86.0,70.0,29.83,East,80,2.0,2.0,59,0.00,,,0.00,,2013-07-12 06:11:00,
2013-07-11 23:32:00,86.0,70.0,29.83,East,90,0.0,0.0,59,0.00,,,0.00,,2013-07-12 06:32:00,
2013-07-11 23:52:00,86.0,69.0,29.83,East,90,0.0,0.0,58,0.00,,,0.00,,2013-07-12 06:52:00,